Paradise, MI (49768)

11:52 PM EDT on May 25, 2015 (GMT -0400)
APRSWXNET | | Change Station
CLOSE
Current Station
Personal Weather Station
Location: Paradise, MI
Elevation: 643 ft
Nearby Weather Stations

Elev 643 ft 46.61 °N, 85.04 °W | Updated 23 minutes ago

Mostly Cloudy
Mostly Cloudy
59 °F
Feels Like 59 °F
N
3
Wind Variable Wind from South
Gusts 8.0 mph

Today
High -- | Low -- °F
--% Chance of Precip.
Yesterday
High -- | Low -- °F
Precip. -- in
5:56 AM 9:19 PM
First Quarter, 54% visible
Pressure 29.79 in
Visibility 4.0 miles
Clouds Overcast 300 ft
Dew Point 58 °F
Humidity 98%
Rainfall in
Snow Depth Not available.
UV 0 out of 12
Pollen 1.00 out of 12
Air Quality Not available.
Flu Activity Sporadic
METAR KERY 260335Z AUTO 23009KT 4SM BR OVC003 12/12 A2979 RMK AO2 T01180117

More Conditions Fewer Conditions

Pressure 29.79 in
Visibility 4.0 miles
Clouds Overcast 300 ft
Dew Point 58 °F
Humidity 98%
Rainfall in
Snow Depth Not available.
UV 0 out of 12
Pollen 1.00 out of 12
Air Quality Not available.
Flu Activity Sporadic
METAR KERY 260335Z AUTO 23009KT 4SM BR OVC003 12/12 A2979 RMK AO2 T01180117

More Conditions Fewer Conditions

Nowcast | as of 10:00 PM EDT on May 25, 2015

At 11 PM...mostly cloudy. Chance of showers. Temperature 58. Southwest winds 7 mph. At 1 am...mostly cloudy. Chance of showers and slight chance of thunderstorms. Temperature 57. Southwest winds 6 mph. At 3 am...mostly cloudy. Chance of showers and slight chance of thunderstorms. Temperature 56. Southwest winds 6 mph. At 5 am...mostly cloudy. Chance of showers and slight chance of thunderstorms. Temperature 55. Southwest winds 6 mph.

×

10-Day Weather Forecast

Almanac

Astronomy

May. 25, 2015 Rise Set
Actual Time
Civil Twilight
Nautical Twilight
Astronomical Twilight
Moon
Length of Visible Light
Length of Day
Tomorrow will be .
, % of the Moon is Illuminated

Today's Extremes

State Highs State Lows

Community

WunderPhotos

Upload Photos

1,824,269 photos uploaded!

WunderBlogs® & News

Nearby

Air Quality

  Air Quality AQ Index Pollutant
Not available.

Snow Depth

Station Depth Elevation

Earthquake Activity

City Distance Mag. Time & Date
Minimum magnitude displayed is 2.5.

Coastal Water Temperatures

Place Temperature

Stations

Nearby Weather Stations

Station Location Temp. Windchill Dew Point Humidity Wind Precip. Elev Updated Type